createdAt,value
2022-09-23T00:01:04.534Z,96.67
2022-09-23T00:03:32.191Z,96.85
2022-09-23T00:06:04.510Z,97.18
2022-09-23T00:08:32.308Z,96.38
2022-09-23T00:11:16.208Z,95.93
2022-09-23T00:13:44.904Z,96.25
2022-09-23T00:16:14.500Z,96.23
2022-09-23T00:18:42.435Z,95.84
2022-09-23T00:21:11.102Z,96.10
2022-09-23T00:23:39.062Z,95.90
2022-09-23T00:26:06.987Z,95.51
2022-09-23T00:28:34.731Z,95.63
2022-09-23T00:31:02.879Z,95.70
2022-09-23T00:33:30.213Z,95.49
2022-09-23T00:36:06.017Z,95.64
2022-09-23T00:38:34.416Z,95.52
2022-09-23T00:41:01.589Z,95.34
2022-09-23T00:43:41.594Z,94.68
2022-09-23T00:46:18.053Z,95.35
2022-09-23T00:48:46.435Z,95.13
2022-09-23T00:51:18.036Z,95.18
2022-09-23T00:53:47.748Z,95.07
2022-09-23T00:56:15.923Z,94.88
2022-09-23T00:58:44.752Z,94.86
2022-09-23T01:01:14.169Z,94.80
2022-09-23T01:03:43.606Z,94.84
2022-09-23T01:06:11.345Z,94.93
2022-09-23T01:08:39.118Z,94.61
2022-09-23T01:11:06.350Z,94.41
2022-09-23T01:13:38.512Z,93.97
2022-09-23T01:16:19.190Z,94.18
2022-09-23T01:18:46.839Z,94.24
2022-09-23T01:21:17.077Z,93.72
2022-09-23T01:23:53.408Z,94.02
2022-09-23T01:26:33.970Z,93.71
2022-09-23T01:29:04.029Z,93.99
2022-09-23T01:31:31.202Z,93.58
2022-09-23T01:34:11.331Z,93.13
2022-09-23T01:36:39.543Z,93.80
2022-09-23T01:39:24.868Z,93.86
2022-09-23T01:42:07.898Z,93.06
2022-09-23T01:44:43.927Z,93.09
2022-09-23T01:47:14.884Z,93.38
2022-09-23T01:49:51.321Z,93.72
2022-09-23T01:52:35.650Z,93.04
2022-09-23T01:55:08.922Z,93.68
2022-09-23T01:57:49.069Z,92.90
2022-09-23T02:00:17.499Z,93.48
2022-09-23T02:02:59.589Z,93.40
2022-09-23T02:05:33.710Z,93.47
2022-09-23T02:08:09.073Z,93.11
2022-09-23T02:10:47.770Z,93.16
2022-09-23T02:13:18.552Z,92.65
2022-09-23T02:15:49.912Z,92.92
2022-09-23T02:18:20.769Z,93.03
2022-09-23T02:20:51.224Z,92.95
2022-09-23T02:23:23.725Z,92.80
2022-09-23T02:26:03.631Z,92.68
2022-09-23T02:28:49.514Z,92.71
2022-09-23T02:31:28.141Z,93.19
2022-09-23T02:34:02.718Z,92.58
2022-09-23T02:36:31.739Z,92.51
2022-09-23T02:39:04.049Z,92.71
2022-09-23T02:41:37.560Z,92.05
2022-09-23T02:44:10.379Z,92.58
2022-09-23T02:46:38.391Z,92.31
2022-09-23T02:49:17.742Z,92.49
2022-09-23T02:51:45.749Z,92.14
2022-09-23T02:54:15.144Z,92.08
2022-09-23T02:56:42.738Z,92.27
2022-09-23T02:59:10.888Z,92.35
2022-09-23T03:01:56.766Z,92.26
2022-09-23T03:04:31.988Z,92.60
2022-09-23T03:07:19.266Z,92.21
2022-09-23T03:09:53.031Z,92.07
2022-09-23T03:12:27.238Z,92.28
2022-09-23T03:15:10.257Z,91.87
2022-09-23T03:17:43.707Z,92.25
2022-09-23T03:20:15.749Z,91.87
2022-09-23T03:22:49.002Z,91.50
2022-09-23T03:25:19.465Z,91.93
2022-09-23T03:27:46.682Z,92.04
2022-09-23T03:30:14.578Z,92.08
2022-09-23T03:32:44.612Z,91.57
2022-09-23T03:35:12.538Z,91.66
2022-09-23T03:37:41.997Z,91.64
2022-09-23T03:40:09.503Z,91.39
2022-09-23T03:42:38.628Z,91.04
2022-09-23T03:45:09.492Z,91.41
2022-09-23T03:47:39.631Z,91.74
2022-09-23T03:50:07.184Z,91.77
2022-09-23T03:52:34.492Z,91.56
2022-09-23T03:55:01.779Z,91.42
2022-09-23T03:57:30.347Z,91.39
2022-09-23T03:59:57.516Z,91.46
2022-09-23T04:02:25.417Z,91.48
2022-09-23T04:04:52.741Z,91.25
2022-09-23T04:07:20.753Z,90.77
2022-09-23T04:09:48.247Z,91.14
2022-09-23T04:12:16.265Z,90.80
2022-09-23T04:14:43.743Z,91.19
2022-09-23T04:17:11.836Z,91.12
2022-09-23T04:19:39.369Z,91.22
2022-09-23T04:22:07.020Z,91.04
2022-09-23T04:24:34.580Z,90.48
2022-09-23T04:27:02.141Z,90.33
2022-09-23T04:29:29.631Z,90.16
2022-09-23T04:31:58.039Z,90.42
2022-09-23T04:34:25.219Z,90.12
2022-09-23T04:36:52.452Z,89.62
2022-09-23T04:39:19.914Z,89.68
2022-09-23T04:41:47.577Z,89.51
2022-09-23T04:44:15.314Z,89.48
2022-09-23T04:46:43.836Z,89.28
2022-09-23T04:49:11.362Z,89.45
2022-09-23T04:51:40.680Z,89.34
2022-09-23T04:54:08.210Z,89.15
2022-09-23T04:56:35.432Z,89.10
2022-09-23T04:59:02.900Z,88.84
2022-09-23T05:01:31.851Z,88.57
2022-09-23T05:04:03.141Z,88.33
2022-09-23T05:06:31.610Z,88.24
2022-09-23T05:08:59.570Z,87.89
2022-09-23T05:11:27.373Z,87.76
2022-09-23T05:13:54.716Z,87.91
2022-09-23T05:16:25.783Z,87.35
2022-09-23T05:18:53.422Z,87.46
2022-09-23T05:21:21.944Z,87.53
2022-09-23T05:23:50.308Z,87.28
2022-09-23T05:26:17.519Z,87.26
2022-09-23T05:28:44.756Z,87.09
2022-09-23T05:31:20.010Z,86.79
2022-09-23T05:33:49.307Z,86.29
2022-09-23T05:36:20.231Z,86.57
2022-09-23T05:38:49.368Z,86.13
2022-09-23T05:41:16.689Z,85.23
2022-09-23T05:43:44.277Z,84.01
2022-09-23T05:46:15.852Z,84.50
2022-09-23T05:48:45.760Z,84.76
2022-09-23T05:51:20.331Z,83.02
2022-09-23T05:53:48.805Z,81.36
2022-09-23T05:56:17.868Z,80.83
2022-09-23T05:58:45.088Z,81.11
2022-09-23T06:01:14.417Z,81.31
2022-09-23T06:03:41.660Z,80.93
2022-09-23T06:06:12.951Z,80.92
2022-09-23T06:08:40.560Z,80.63
2022-09-23T06:11:08.509Z,81.33
2022-09-23T06:13:39.173Z,81.59
2022-09-23T06:16:08.295Z,81.78
2022-09-23T06:18:35.861Z,81.86
2022-09-23T06:21:03.531Z,82.41
2022-09-23T06:23:31.343Z,82.02
2022-09-23T06:26:02.329Z,81.34
2022-09-23T06:28:31.405Z,81.21
2022-09-23T06:31:03.667Z,81.20
2022-09-23T06:33:36.488Z,80.85
2022-09-23T06:36:05.839Z,80.67
2022-09-23T06:38:36.726Z,80.11
2022-09-23T06:41:04.111Z,80.58
2022-09-23T06:43:31.644Z,79.75
2022-09-23T06:45:59.764Z,79.36
2022-09-23T06:48:28.105Z,79.57
2022-09-23T06:50:58.871Z,79.75
2022-09-23T06:53:26.000Z,79.75
2022-09-23T06:56:04.643Z,79.55
2022-09-23T06:58:32.752Z,79.28
2022-09-23T07:01:26.554Z,79.14
2022-09-23T07:03:54.408Z,79.18
2022-09-23T07:06:21.747Z,79.15
2022-09-23T07:08:49.204Z,79.89
2022-09-23T07:11:19.463Z,79.58
2022-09-23T07:13:46.774Z,79.62
2022-09-23T07:16:14.628Z,80.15
2022-09-23T07:18:42.911Z,79.76
2022-09-23T07:21:15.471Z,79.57
2022-09-23T07:23:43.868Z,79.70
2022-09-23T07:26:11.101Z,79.50
2022-09-23T07:28:38.530Z,79.46
2022-09-23T07:31:07.703Z,79.26
2022-09-23T07:33:36.567Z,78.81
2022-09-23T07:36:05.341Z,78.79
2022-09-23T07:38:32.878Z,78.82
2022-09-23T07:41:07.764Z,78.36
2022-09-23T07:43:35.652Z,77.89
2022-09-23T07:46:05.425Z,78.05
2022-09-23T07:48:34.507Z,77.74
2022-09-23T07:51:12.952Z,77.14
2022-09-23T07:53:40.342Z,77.11
2022-09-23T07:56:07.602Z,77.00
2022-09-23T07:58:35.391Z,77.05
2022-09-23T08:01:06.688Z,76.48
2022-09-23T08:03:34.009Z,76.50
2022-09-23T08:06:05.642Z,76.74
2022-09-23T08:08:33.142Z,77.33
2022-09-23T08:11:01.635Z,77.07
2022-09-23T08:13:28.891Z,77.49
2022-09-23T08:15:56.215Z,76.86
2022-09-23T08:18:23.566Z,76.95
2022-09-23T08:20:51.209Z,76.98
2022-09-23T08:23:19.710Z,77.01
2022-09-23T08:25:49.199Z,75.96
2022-09-23T08:28:18.809Z,76.24
2022-09-23T08:30:48.695Z,75.74
2022-09-23T08:33:19.630Z,75.27
2022-09-23T08:35:50.058Z,75.43
2022-09-23T08:38:17.543Z,75.52
2022-09-23T08:40:47.551Z,75.08
2022-09-23T08:43:19.636Z,75.31
2022-09-23T08:45:46.919Z,75.01
2022-09-23T08:48:16.147Z,74.77
2022-09-23T08:50:45.604Z,74.68
2022-09-23T08:53:22.023Z,74.96
2022-09-23T08:55:52.015Z,74.83
2022-09-23T08:58:26.500Z,74.25
2022-09-23T09:01:09.799Z,74.93
2022-09-23T09:03:55.746Z,74.51
2022-09-23T09:06:45.589Z,74.55
2022-09-23T09:09:24.699Z,74.61
2022-09-23T09:11:55.179Z,74.68
2022-09-23T09:14:30.454Z,74.02
2022-09-23T09:17:01.526Z,74.18
2022-09-23T09:19:30.644Z,74.33
2022-09-23T09:21:58.264Z,73.21
2022-09-23T09:24:34.564Z,72.98
2022-09-23T09:27:09.375Z,72.67
2022-09-23T09:29:39.340Z,72.58
2022-09-23T09:32:15.762Z,72.35
2022-09-23T09:34:49.660Z,72.18
2022-09-23T09:37:19.852Z,71.64
2022-09-23T09:39:47.296Z,71.69
2022-09-23T09:42:35.639Z,70.85
2022-09-23T09:45:04.678Z,70.60
2022-09-23T09:47:50.114Z,70.87
2022-09-23T09:50:22.304Z,71.26
2022-09-23T09:52:49.499Z,70.66
2022-09-23T09:55:23.277Z,70.95
2022-09-23T09:57:50.409Z,71.06
2022-09-23T10:00:27.069Z,70.73
2022-09-23T10:02:55.274Z,71.04
2022-09-23T10:05:27.902Z,70.72
2022-09-23T10:07:55.455Z,70.62
2022-09-23T10:10:32.745Z,70.63
2022-09-23T10:13:14.870Z,70.17
2022-09-23T10:15:45.046Z,69.99
2022-09-23T10:18:20.810Z,70.45
2022-09-23T10:20:48.366Z,70.58
2022-09-23T10:23:18.121Z,70.63
2022-09-23T10:25:55.872Z,70.36
2022-09-23T10:28:38.441Z,69.94
2022-09-23T10:31:07.195Z,70.18
2022-09-23T10:33:34.494Z,69.78
2022-09-23T10:36:02.042Z,69.88
2022-09-23T10:38:29.384Z,69.78
2022-09-23T10:41:15.312Z,70.14
2022-09-23T10:44:10.292Z,70.77
2022-09-23T10:46:50.713Z,70.56
2022-09-23T10:49:21.200Z,70.42
2022-09-23T10:52:06.934Z,69.55
2022-09-23T10:54:34.216Z,69.03
2022-09-23T10:57:27.614Z,69.26
2022-09-23T11:00:24.481Z,69.34
2022-09-23T11:03:03.590Z,69.13
2022-09-23T11:05:38.721Z,69.11
2022-09-23T11:08:24.709Z,67.92
2022-09-23T11:11:11.772Z,68.57
2022-09-23T11:13:45.734Z,68.26
2022-09-23T11:16:18.765Z,68.17
2022-09-23T11:18:51.642Z,67.68
2022-09-23T11:21:21.914Z,67.68
2022-09-23T11:24:07.695Z,67.58
2022-09-23T11:26:57.418Z,68.24
2022-09-23T11:29:37.598Z,68.42
2022-09-23T11:32:04.843Z,68.41
2022-09-23T11:34:52.721Z,68.01
2022-09-23T11:37:25.996Z,66.28
2022-09-23T11:39:56.520Z,67.22
2022-09-23T11:42:27.607Z,66.44
2022-09-23T11:44:59.682Z,65.73
2022-09-23T11:47:30.433Z,66.18
2022-09-23T11:50:03.250Z,66.38
2022-09-23T11:52:42.767Z,65.94
2022-09-23T11:55:23.254Z,66.36
2022-09-23T11:57:56.484Z,66.99
2022-09-23T12:00:36.359Z,67.06
2022-09-23T12:03:35.170Z,66.83
2022-09-23T12:06:14.672Z,66.78
2022-09-23T12:08:41.847Z,66.04
2022-09-23T12:11:27.816Z,65.73
2022-09-23T12:14:16.512Z,66.48
2022-09-23T12:16:52.712Z,66.43
2022-09-23T12:19:39.105Z,66.23
2022-09-23T12:22:09.250Z,66.29
2022-09-23T12:24:39.648Z,66.38
2022-09-23T12:27:11.508Z,66.83
2022-09-23T12:29:40.700Z,66.71
2022-09-23T12:32:10.248Z,66.80
2022-09-23T12:34:49.230Z,66.78
2022-09-23T12:37:28.033Z,66.50
2022-09-23T12:39:59.591Z,66.12
2022-09-23T12:42:30.879Z,66.05
2022-09-23T12:45:17.229Z,66.24
2022-09-23T12:47:44.417Z,66.12
2022-09-23T12:50:51.143Z,66.24
2022-09-23T12:53:30.484Z,66.10
2022-09-23T12:55:59.003Z,66.04
2022-09-23T12:58:58.341Z,66.03
2022-09-23T13:01:27.077Z,65.85
2022-09-23T13:04:14.326Z,65.18
2022-09-23T13:06:48.287Z,65.22
2022-09-23T13:09:25.107Z,65.26
2022-09-23T13:11:53.534Z,66.01
2022-09-23T13:14:27.402Z,65.84
2022-09-23T13:16:57.483Z,65.84
2022-09-23T13:19:27.955Z,65.90
2022-09-23T13:21:55.216Z,65.68
2022-09-23T13:24:28.626Z,66.06
2022-09-23T13:27:14.116Z,65.56
2022-09-23T13:29:44.771Z,65.42
2022-09-23T13:32:19.378Z,65.94
2022-09-23T13:34:53.382Z,65.81
2022-09-23T13:37:23.002Z,65.78
2022-09-23T13:39:50.523Z,66.22
2022-09-23T13:42:27.380Z,66.00
2022-09-23T13:44:57.751Z,66.36
2022-09-23T13:47:28.291Z,66.66
2022-09-23T13:49:55.774Z,66.39
2022-09-23T13:52:25.553Z,66.62
2022-09-23T13:54:52.998Z,66.94
2022-09-23T13:57:37.104Z,67.02
2022-09-23T14:00:18.198Z,67.34
2022-09-23T14:02:47.084Z,67.35
2022-09-23T14:05:22.224Z,67.13
2022-09-23T14:07:50.943Z,67.29
2022-09-23T14:10:20.848Z,67.50
2022-09-23T14:12:49.921Z,67.60
2022-09-23T14:15:18.986Z,67.37
2022-09-23T14:17:51.421Z,67.13
2022-09-23T14:20:20.919Z,67.29
2022-09-23T14:22:48.210Z,67.53
2022-09-23T14:25:16.921Z,67.72
2022-09-23T14:27:45.186Z,67.49
2022-09-23T14:30:16.397Z,67.80
2022-09-23T14:32:44.635Z,68.15
2022-09-23T14:35:25.920Z,68.07
2022-09-23T14:38:14.086Z,68.33
2022-09-23T14:40:51.001Z,68.12
2022-09-23T14:43:18.463Z,68.43
2022-09-23T14:45:48.012Z,68.51
2022-09-23T14:48:17.819Z,68.67
2022-09-23T14:50:50.762Z,69.01
2022-09-23T14:53:22.577Z,69.04
2022-09-23T14:55:54.588Z,69.08
2022-09-23T14:58:24.261Z,68.95
2022-09-23T15:01:01.782Z,69.24
2022-09-23T15:03:29.364Z,68.83
2022-09-23T15:05:58.296Z,69.12
2022-09-23T15:08:27.586Z,69.08
2022-09-23T15:10:55.193Z,69.11
2022-09-23T15:13:30.233Z,69.10
2022-09-23T15:15:58.191Z,69.28
2022-09-23T15:18:26.865Z,69.15
2022-09-23T15:20:55.902Z,69.29
2022-09-23T15:23:35.311Z,69.38
2022-09-23T15:26:06.147Z,69.46
2022-09-23T15:28:33.459Z,69.77
2022-09-23T15:31:01.273Z,69.69
2022-09-23T15:33:30.270Z,69.88
2022-09-23T15:35:58.423Z,70.04
2022-09-23T15:38:27.413Z,69.66
2022-09-23T15:40:54.836Z,69.57
2022-09-23T15:43:23.555Z,69.61
2022-09-23T15:45:56.318Z,69.86
2022-09-23T15:48:28.445Z,69.94
2022-09-23T15:50:55.721Z,69.99
2022-09-23T15:53:27.548Z,69.90
2022-09-23T15:55:54.837Z,70.31
2022-09-23T15:58:22.883Z,70.38
2022-09-23T16:00:56.634Z,70.48
2022-09-23T16:03:33.983Z,70.50
2022-09-23T16:06:03.396Z,70.72
2022-09-23T16:08:33.212Z,70.75
2022-09-23T16:11:00.772Z,70.81
2022-09-23T16:13:28.207Z,71.21
2022-09-23T16:15:56.533Z,71.05
2022-09-23T16:18:23.811Z,71.18
2022-09-23T16:20:51.610Z,71.13
2022-09-23T16:23:42.981Z,71.07
2022-09-23T16:26:10.299Z,71.07
2022-09-23T16:28:38.014Z,71.29
2022-09-23T16:31:05.691Z,71.29
2022-09-23T16:33:33.201Z,71.44
2022-09-23T16:36:01.239Z,71.47
2022-09-23T16:38:32.894Z,71.48
2022-09-23T16:41:00.928Z,71.35
2022-09-23T16:43:35.312Z,71.37
2022-09-23T16:46:02.629Z,71.38
2022-09-23T16:48:29.854Z,71.50
2022-09-23T16:50:57.084Z,71.76
2022-09-23T16:53:25.703Z,71.80
2022-09-23T16:55:54.258Z,71.71
2022-09-23T16:58:21.761Z,71.92
2022-09-23T17:01:07.275Z,72.09
2022-09-23T17:03:41.499Z,72.12
2022-09-23T17:06:15.058Z,72.24
2022-09-23T17:08:43.138Z,72.15
2022-09-23T17:11:14.715Z,72.25
2022-09-23T17:13:42.542Z,72.35
2022-09-23T17:16:11.898Z,72.37
2022-09-23T17:18:39.584Z,72.37
2022-09-23T17:21:07.722Z,72.37
2022-09-23T17:23:35.911Z,72.37
2022-09-23T17:26:05.575Z,72.32
2022-09-23T17:31:18.496Z,72.49
2022-09-23T17:33:45.993Z,72.56
2022-09-23T17:36:14.097Z,72.61
2022-09-23T17:38:45.298Z,72.75
2022-09-23T17:41:14.209Z,72.73
2022-09-23T17:46:26.921Z,73.00
2022-09-23T17:51:57.797Z,73.17
2022-09-23T17:54:25.016Z,73.09
2022-09-23T17:56:52.227Z,73.17
2022-09-23T17:59:19.505Z,73.01
2022-09-23T18:01:46.622Z,73.25
2022-09-23T18:04:14.272Z,72.95
2022-09-23T18:06:41.694Z,73.52
2022-09-23T18:09:09.596Z,73.49
2022-09-23T18:11:41.986Z,73.32
2022-09-23T18:14:14.666Z,73.73
2022-09-23T18:16:42.956Z,73.76
2022-09-23T18:19:11.730Z,73.76
2022-09-23T18:21:41.304Z,73.59
2022-09-23T18:27:00.024Z,73.40
2022-09-23T18:29:27.728Z,73.52
2022-09-23T18:34:39.834Z,73.45
2022-09-23T18:37:15.250Z,73.81
2022-09-23T18:39:43.557Z,73.82
2022-09-23T18:42:11.174Z,73.71
2022-09-23T18:44:38.375Z,73.80
2022-09-23T18:47:05.905Z,74.13
2022-09-23T18:49:51.691Z,74.02
2022-09-23T18:52:20.364Z,74.17
2022-09-23T18:54:49.103Z,74.25
2022-09-23T18:57:18.929Z,74.19
2022-09-23T18:59:47.665Z,74.61
2022-09-23T19:02:15.647Z,74.63
2022-09-23T19:04:42.830Z,74.26
2022-09-23T19:07:10.293Z,74.48
2022-09-23T19:09:37.587Z,74.67
2022-09-23T19:12:05.095Z,74.21
2022-09-23T19:14:32.717Z,74.52
2022-09-23T19:17:00.068Z,74.68
2022-09-23T19:19:29.041Z,74.59
2022-09-23T19:21:56.696Z,74.77
2022-09-23T19:24:23.952Z,74.78
2022-09-23T19:26:51.401Z,74.75
2022-09-23T19:29:22.249Z,74.72
2022-09-23T19:31:49.638Z,75.22
2022-09-23T19:34:23.949Z,75.16
2022-09-23T19:36:52.942Z,75.09
2022-09-23T19:39:21.243Z,74.92
2022-09-23T19:41:49.185Z,75.15
2022-09-23T19:44:16.999Z,74.98
2022-09-23T19:46:45.807Z,74.77
2022-09-23T19:49:14.080Z,75.11
2022-09-23T19:51:41.626Z,75.40
2022-09-23T19:54:09.388Z,75.62
2022-09-23T19:56:36.917Z,75.51
2022-09-23T19:59:07.033Z,75.37
2022-09-23T20:01:34.589Z,74.97
2022-09-23T20:04:02.263Z,74.94
2022-09-23T20:06:34.128Z,75.11
2022-09-23T20:09:02.088Z,74.83
2022-09-23T20:11:29.561Z,74.96
2022-09-23T20:14:01.911Z,75.11
2022-09-23T20:16:32.635Z,74.97
2022-09-23T20:19:01.005Z,75.11
2022-09-23T20:21:29.503Z,75.17
2022-09-23T20:23:57.485Z,75.13
2022-09-23T20:26:43.221Z,74.94
2022-09-23T20:29:11.508Z,74.80
2022-09-23T20:31:40.705Z,75.05
2022-09-23T20:34:10.246Z,75.12
2022-09-23T20:36:38.205Z,74.96
2022-09-23T20:39:06.206Z,75.03
2022-09-23T20:41:37.484Z,75.06
2022-09-23T20:44:06.587Z,75.11
2022-09-23T20:46:34.609Z,74.56
2022-09-23T20:49:02.283Z,75.07
2022-09-23T20:51:29.904Z,75.17
2022-09-23T20:53:57.269Z,75.22
2022-09-23T20:56:25.479Z,74.94
2022-09-23T20:58:54.359Z,75.21
2022-09-23T21:01:22.168Z,74.94
2022-09-23T21:03:50.338Z,75.11
2022-09-23T21:06:19.169Z,75.14
2022-09-23T21:08:46.866Z,75.25
2022-09-23T21:11:16.087Z,75.28
2022-09-23T21:13:47.385Z,75.16
2022-09-23T21:16:17.940Z,74.96
2022-09-23T21:18:45.757Z,75.07
2022-09-23T21:21:14.400Z,75.11
2022-09-23T21:23:42.919Z,75.22
2022-09-23T21:26:11.542Z,75.24
2022-09-23T21:28:40.383Z,75.22
2022-09-23T21:31:09.198Z,75.25
2022-09-23T21:33:37.634Z,75.45
2022-09-23T21:36:08.264Z,75.42
2022-09-23T21:38:36.345Z,75.20
2022-09-23T21:41:05.152Z,75.25
2022-09-23T21:43:34.246Z,75.43
2022-09-23T21:46:02.697Z,75.31
2022-09-23T21:48:29.836Z,75.16
2022-09-23T21:50:58.215Z,75.32
2022-09-23T21:53:26.176Z,75.61
2022-09-23T21:55:53.495Z,75.29
2022-09-23T21:58:21.983Z,75.62
2022-09-23T22:00:49.361Z,75.78
2022-09-23T22:03:16.688Z,75.45
2022-09-23T22:05:44.339Z,75.96
2022-09-23T22:08:11.635Z,76.02
2022-09-23T22:10:39.486Z,76.33
2022-09-23T22:13:12.589Z,76.43
2022-09-23T22:15:40.163Z,76.45
2022-09-23T22:18:08.172Z,76.70
2022-09-23T22:20:35.824Z,76.20
2022-09-23T22:23:03.127Z,76.56
2022-09-23T22:25:30.366Z,76.81
2022-09-23T22:28:16.387Z,76.69
2022-09-23T22:31:02.561Z,77.02
2022-09-23T22:33:30.080Z,76.83
2022-09-23T22:36:03.938Z,77.04
2022-09-23T22:38:31.488Z,77.38
2022-09-23T22:41:00.081Z,77.15
2022-09-23T22:43:27.579Z,77.58
2022-09-23T22:45:55.131Z,77.63
2022-09-23T22:48:22.374Z,77.85
2022-09-23T22:50:49.532Z,77.90
2022-09-23T22:53:17.128Z,77.51
2022-09-23T22:55:44.629Z,77.87
2022-09-23T22:58:31.113Z,77.91
2022-09-23T23:00:59.455Z,77.99
2022-09-23T23:03:27.191Z,77.89
2022-09-23T23:05:57.735Z,78.01
2022-09-23T23:08:25.305Z,77.80
2022-09-23T23:10:55.233Z,78.18
2022-09-23T23:13:22.551Z,78.24
2022-09-23T23:15:50.009Z,77.96
2022-09-23T23:18:17.282Z,78.46
2022-09-23T23:20:44.748Z,78.49
2022-09-23T23:23:13.017Z,78.60
2022-09-23T23:25:40.503Z,78.52
2022-09-23T23:28:07.639Z,78.69
2022-09-23T23:30:35.287Z,78.40
2022-09-23T23:33:02.451Z,78.99
2022-09-23T23:35:29.795Z,78.96
2022-09-23T23:37:57.101Z,79.17
2022-09-23T23:40:24.796Z,79.13
2022-09-23T23:42:52.061Z,78.88
2022-09-23T23:45:19.281Z,79.02
2022-09-23T23:47:46.768Z,78.84
2022-09-23T23:50:14.340Z,79.71
2022-09-23T23:52:41.762Z,79.38
2022-09-23T23:55:09.448Z,80.02
2022-09-23T23:57:38.121Z,79.60
